KOCW/OCW METAR and TAF weather

Enter ICAO airport designator
Station Type Date Time Source
KOCW METAR 2018/12/13 09:20 UTC NOAA

KOCW 130920Z AUTO 00000KT 10SM CLR M01/M02 A3025 RMK AO2 T10101017


Station Type Date Time Source
KOCW Decoded METAR 2018/12/13 09:20 UTC NOAA

Washington, Warren Field Airport, NC, United States (KOCW) 35-34-14N 077-02-59W
Dec 13, 2018 - 04:20 AM EST / 2018.12.13 0920 UTC
Wind: Calm:0
Visibility: 10 mile(s):0
Sky conditions: clear
Temperature: 30.2 F (-1.0 C)
Dew Point: 28.9 F (-1.7 C)
Relative Humidity: 94%
Pressure (altimeter): 30.25 in. Hg (1024 hPa)
ob: KOCW 130920Z AUTO 00000KT 10SM CLR M01/M02 A3025 RMK AO2 T10101017
cycle: 9

Station Type Date Time Source
KOCW TAF UTC NOAA

Error!


Example: see airport list